createdAt,value
2023-02-12T00:01:36.185Z,10.05
2023-02-12T00:04:05.970Z,9.69
2023-02-12T00:06:35.844Z,8.86
2023-02-12T00:09:05.798Z,9.72
2023-02-12T00:11:35.616Z,9.92
2023-02-12T00:14:06.042Z,9.45
2023-02-12T00:16:38.890Z,9.72
2023-02-12T00:19:08.795Z,9.69
2023-02-12T00:21:38.975Z,9.50
2023-02-12T00:24:09.387Z,9.05
2023-02-12T00:26:39.358Z,9.68
2023-02-12T00:29:09.632Z,9.65
2023-02-12T00:31:42.609Z,9.48
2023-02-12T00:34:14.097Z,9.51
2023-02-12T00:36:44.066Z,9.68
2023-02-12T00:39:13.984Z,9.93
2023-02-12T00:41:43.741Z,9.51
2023-02-12T00:44:13.494Z,9.59
2023-02-12T00:46:45.903Z,9.73
2023-02-12T00:49:16.082Z,9.92
2023-02-12T00:51:45.836Z,9.79
2023-02-12T00:54:15.725Z,10.01
2023-02-12T00:56:45.452Z,9.91
2023-02-12T00:59:15.089Z,9.93
2023-02-12T01:01:47.451Z,9.78
2023-02-12T01:04:18.489Z,9.67
2023-02-12T01:06:48.337Z,9.79
2023-02-12T01:09:18.352Z,9.82
2023-02-12T01:11:48.042Z,9.95
2023-02-12T01:14:19.041Z,9.76
2023-02-12T01:16:51.394Z,9.93
2023-02-12T01:19:22.079Z,9.96
2023-02-12T01:21:53.021Z,9.63
2023-02-12T01:24:22.720Z,9.93
2023-02-12T01:26:52.409Z,10.00
2023-02-12T01:29:22.119Z,9.73
2023-02-12T01:31:54.625Z,10.06
2023-02-12T01:34:24.600Z,9.87
2023-02-12T01:36:55.341Z,9.78
2023-02-12T01:39:25.085Z,9.42
2023-02-12T01:41:54.762Z,9.54
2023-02-12T01:44:26.443Z,9.75
2023-02-12T01:47:02.205Z,9.69
2023-02-12T01:49:36.472Z,9.77
2023-02-12T01:52:11.596Z,9.53
2023-02-12T01:54:42.073Z,9.40
2023-02-12T01:57:14.970Z,9.57
2023-02-12T01:59:46.509Z,9.67
2023-02-12T02:02:19.368Z,9.39
2023-02-12T02:04:54.710Z,9.49
2023-02-12T02:07:24.382Z,9.57
2023-02-12T02:09:54.809Z,9.74
2023-02-12T02:12:37.257Z,9.75
2023-02-12T02:15:09.030Z,9.69
2023-02-12T02:17:53.019Z,9.70
2023-02-12T02:21:07.456Z,9.75
2023-02-12T02:23:59.427Z,9.58
2023-02-12T02:27:02.833Z,9.71
2023-02-12T02:29:49.031Z,9.40
2023-02-12T02:32:26.506Z,9.38
2023-02-12T02:35:04.607Z,9.55
2023-02-12T02:37:37.990Z,9.70
2023-02-12T02:40:14.639Z,9.47
2023-02-12T02:42:49.546Z,9.74
2023-02-12T02:45:23.729Z,9.63
2023-02-12T02:48:01.094Z,9.35
2023-02-12T02:50:34.328Z,9.59
2023-02-12T02:53:07.381Z,9.32
2023-02-12T02:55:43.676Z,9.55
2023-02-12T02:58:17.433Z,9.31
2023-02-12T03:00:51.088Z,9.70
2023-02-12T03:03:28.786Z,9.81
2023-02-12T03:06:05.586Z,9.70
2023-02-12T03:08:41.093Z,9.54
2023-02-12T03:11:15.623Z,9.23
2023-02-12T03:13:50.931Z,9.44
2023-02-12T03:16:26.074Z,9.78
2023-02-12T03:19:04.007Z,9.29
2023-02-12T03:21:42.857Z,9.81
2023-02-12T03:24:18.111Z,9.61
2023-02-12T03:26:53.568Z,9.80
2023-02-12T03:29:23.247Z,9.72
2023-02-12T03:32:05.894Z,9.20
2023-02-12T03:34:50.169Z,9.38
2023-02-12T03:37:25.173Z,9.75
2023-02-12T03:39:59.456Z,9.84
2023-02-12T03:42:37.267Z,9.85
2023-02-12T03:45:13.169Z,9.76
2023-02-12T03:47:48.957Z,9.83
2023-02-12T03:50:27.751Z,9.74
2023-02-12T03:52:57.480Z,9.58
2023-02-12T03:55:27.521Z,9.75
2023-02-12T03:58:02.548Z,9.78
2023-02-12T04:00:33.011Z,9.32
2023-02-12T04:03:03.420Z,9.35
2023-02-12T04:05:35.847Z,9.29
2023-02-12T04:08:11.819Z,9.73
2023-02-12T04:10:49.917Z,9.64
2023-02-12T04:13:26.612Z,9.62
2023-02-12T04:16:15.485Z,9.63
2023-02-12T04:18:49.529Z,9.74
2023-02-12T04:21:38.849Z,9.70
2023-02-12T04:24:16.451Z,9.77
2023-02-12T04:26:52.886Z,9.80
2023-02-12T04:29:32.366Z,9.59
2023-02-12T04:32:09.668Z,9.70
2023-02-12T04:34:48.112Z,9.84
2023-02-12T04:37:25.179Z,9.58
2023-02-12T04:39:56.291Z,9.69
2023-02-12T04:42:26.087Z,9.56
2023-02-12T04:44:56.025Z,9.62
2023-02-12T04:47:25.651Z,9.68
2023-02-12T04:49:55.376Z,9.59
2023-02-12T04:52:27.644Z,9.54
2023-02-12T04:54:57.376Z,9.58
2023-02-12T04:57:27.056Z,9.45
2023-02-12T04:59:56.797Z,8.46
2023-02-12T05:02:26.596Z,9.69
2023-02-12T05:04:56.453Z,9.38
2023-02-12T05:07:29.301Z,9.53
2023-02-12T05:09:59.066Z,9.09
2023-02-12T05:12:28.775Z,9.24
2023-02-12T05:14:58.399Z,9.20
2023-02-12T05:17:28.251Z,9.18
2023-02-12T05:19:57.892Z,9.37
2023-02-12T05:22:30.295Z,9.21
2023-02-12T05:24:59.954Z,9.27
2023-02-12T05:27:29.668Z,8.80
2023-02-12T05:29:59.550Z,8.40
2023-02-12T05:32:29.265Z,9.29
2023-02-12T05:34:58.990Z,9.05
2023-02-12T05:37:31.617Z,9.09
2023-02-12T05:40:01.283Z,9.51
2023-02-12T05:42:32.446Z,9.32
2023-02-12T05:45:02.153Z,9.52
2023-02-12T05:47:31.917Z,9.17
2023-02-12T05:50:01.569Z,9.25
2023-02-12T05:52:33.910Z,9.44
2023-02-12T05:55:03.557Z,9.45
2023-02-12T05:57:33.245Z,9.32
2023-02-12T06:00:02.941Z,8.84
2023-02-12T06:02:41.899Z,9.16
2023-02-12T06:05:11.597Z,9.37
2023-02-12T06:07:43.888Z,9.18
2023-02-12T06:10:14.329Z,9.26
2023-02-12T06:12:44.096Z,9.14
2023-02-12T06:15:13.796Z,9.18
2023-02-12T06:17:43.460Z,9.32
2023-02-12T06:20:13.617Z,9.32
2023-02-12T06:22:45.867Z,9.21
2023-02-12T06:25:15.507Z,9.31
2023-02-12T06:27:45.187Z,9.13
2023-02-12T06:30:16.398Z,8.97
2023-02-12T06:32:46.032Z,9.41
2023-02-12T06:35:15.734Z,9.05
2023-02-12T06:37:48.067Z,9.27
2023-02-12T06:40:18.143Z,9.46
2023-02-12T06:42:49.581Z,9.44
2023-02-12T06:45:20.243Z,9.46
2023-02-12T06:47:50.070Z,9.01
2023-02-12T06:50:20.032Z,9.06
2023-02-12T06:52:52.333Z,8.97
2023-02-12T06:55:22.176Z,9.58
2023-02-12T06:57:51.936Z,9.11
2023-02-12T07:00:23.086Z,9.42
2023-02-12T07:02:56.787Z,9.49
2023-02-12T07:05:27.419Z,9.59
2023-02-12T07:07:59.621Z,9.53
2023-02-12T07:10:29.331Z,9.16
2023-02-12T07:12:59.108Z,8.42
2023-02-12T07:15:28.970Z,9.29
2023-02-12T07:17:58.701Z,9.42
2023-02-12T07:20:28.411Z,9.30
2023-02-12T07:23:00.803Z,9.68
2023-02-12T07:25:30.676Z,9.37
2023-02-12T07:28:00.489Z,9.42
2023-02-12T07:30:30.379Z,9.53
2023-02-12T07:33:00.197Z,9.41
2023-02-12T07:35:29.993Z,9.36
2023-02-12T07:38:02.319Z,9.58
2023-02-12T07:40:32.000Z,9.17
2023-02-12T07:43:01.648Z,9.58
2023-02-12T07:45:31.364Z,9.47
2023-02-12T07:48:01.059Z,9.66
2023-02-12T07:50:30.842Z,9.32
2023-02-12T07:53:03.187Z,9.37
2023-02-12T07:55:32.865Z,9.56
2023-02-12T07:58:02.476Z,9.66
2023-02-12T08:00:32.185Z,9.58
2023-02-12T08:03:01.911Z,9.60
2023-02-12T08:05:31.591Z,9.45
2023-02-12T08:08:03.894Z,9.27
2023-02-12T08:10:33.546Z,9.48
2023-02-12T08:13:03.245Z,9.48
2023-02-12T08:15:32.923Z,9.35
2023-02-12T08:18:02.839Z,9.46
2023-02-12T08:20:32.632Z,9.42
2023-02-12T08:23:04.959Z,9.30
2023-02-12T08:25:34.720Z,9.13
2023-02-12T08:28:04.590Z,9.33
2023-02-12T08:30:34.332Z,9.40
2023-02-12T08:33:04.009Z,9.11
2023-02-12T08:35:33.768Z,8.99
2023-02-12T08:38:06.078Z,9.18
2023-02-12T08:40:36.460Z,9.04
2023-02-12T08:43:06.169Z,8.96
2023-02-12T08:45:36.137Z,9.23
2023-02-12T08:48:06.038Z,9.32
2023-02-12T08:50:37.307Z,9.39
2023-02-12T08:53:10.203Z,9.11
2023-02-12T08:55:39.991Z,9.48
2023-02-12T08:58:09.780Z,8.53
2023-02-12T09:00:40.521Z,9.19
2023-02-12T09:03:10.525Z,9.51
2023-02-12T09:05:41.930Z,9.65
2023-02-12T09:08:14.358Z,9.38
2023-02-12T09:10:44.935Z,9.46
2023-02-12T09:13:16.228Z,9.40
2023-02-12T09:15:47.985Z,9.53
2023-02-12T09:18:18.136Z,9.40
2023-02-12T09:20:47.985Z,9.65
2023-02-12T09:23:20.418Z,9.51
2023-02-12T09:25:50.173Z,9.74
2023-02-12T09:28:20.040Z,9.50
2023-02-12T09:30:49.923Z,9.76
2023-02-12T09:33:20.053Z,9.66
2023-02-12T09:35:49.711Z,9.74
2023-02-12T09:38:22.016Z,9.49
2023-02-12T09:41:09.606Z,9.66
2023-02-12T09:43:46.913Z,9.88
2023-02-12T09:46:24.018Z,9.54
2023-02-12T09:49:03.454Z,9.18
2023-02-12T09:51:34.307Z,9.93
2023-02-12T09:54:10.224Z,9.75
2023-02-12T09:56:43.164Z,9.47
2023-02-12T09:59:21.092Z,9.18
2023-02-12T10:01:50.927Z,10.04
2023-02-12T10:04:20.926Z,9.90
2023-02-12T10:07:00.285Z,10.22
2023-02-12T10:09:47.291Z,10.07
2023-02-12T10:12:27.097Z,9.98
2023-02-12T10:15:12.825Z,9.87
2023-02-12T10:17:46.517Z,10.10
2023-02-12T10:20:41.809Z,9.81
2023-02-12T10:23:26.440Z,9.88
2023-02-12T10:26:00.905Z,9.60
2023-02-12T10:28:35.789Z,10.02
2023-02-12T10:31:09.985Z,10.07
2023-02-12T10:33:44.009Z,10.03
2023-02-12T10:36:21.617Z,9.90
2023-02-12T10:38:55.951Z,9.74
2023-02-12T10:41:31.065Z,10.13
2023-02-12T10:44:00.802Z,9.68
2023-02-12T10:46:33.216Z,10.15
2023-02-12T10:49:03.456Z,10.12
2023-02-12T10:51:59.159Z,10.22
2023-02-12T10:54:37.697Z,10.35
2023-02-12T10:57:15.992Z,10.44
2023-02-12T10:59:46.742Z,10.24
2023-02-12T11:02:25.454Z,10.41
2023-02-12T11:04:56.543Z,10.34
2023-02-12T11:07:27.550Z,10.43
2023-02-12T11:09:59.325Z,10.61
2023-02-12T11:12:39.732Z,10.60
2023-02-12T11:15:17.913Z,10.64
2023-02-12T11:17:59.498Z,10.58
2023-02-12T11:20:31.601Z,10.71
2023-02-12T11:23:03.280Z,10.72
2023-02-12T11:25:34.651Z,10.67
2023-02-12T11:28:18.310Z,10.60
2023-02-12T11:30:57.802Z,10.59
2023-02-12T11:33:33.604Z,10.55
2023-02-12T11:36:08.339Z,10.43
2023-02-12T11:38:41.921Z,10.46
2023-02-12T11:41:28.550Z,10.46
2023-02-12T11:44:01.291Z,10.58
2023-02-12T11:46:31.694Z,10.56
2023-02-12T11:49:02.022Z,10.44
2023-02-12T11:51:34.158Z,10.40
2023-02-12T11:54:06.469Z,10.58
2023-02-12T11:56:47.881Z,10.49
2023-02-12T11:59:32.990Z,10.61
2023-02-12T12:02:08.874Z,10.64
2023-02-12T12:04:40.479Z,10.40
2023-02-12T12:07:16.781Z,10.89
2023-02-12T12:09:51.044Z,10.92
2023-02-12T12:12:26.618Z,10.86
2023-02-12T12:15:15.777Z,10.89
2023-02-12T12:18:04.074Z,10.66
2023-02-12T12:20:39.498Z,10.92
2023-02-12T12:23:18.302Z,10.44
2023-02-12T12:25:52.273Z,10.75
2023-02-12T12:28:33.198Z,10.87
2023-02-12T12:31:10.838Z,10.86
2023-02-12T12:33:45.960Z,10.76
2023-02-12T12:36:43.674Z,10.90
2023-02-12T12:39:29.706Z,11.10
2023-02-12T12:42:21.490Z,11.21
2023-02-12T12:45:06.034Z,11.27
2023-02-12T12:47:49.118Z,11.32
2023-02-12T12:50:38.490Z,11.07
2023-02-12T12:53:25.521Z,11.13
2023-02-12T12:56:15.849Z,10.99
2023-02-12T12:59:02.977Z,11.05
2023-02-12T13:01:55.909Z,11.01
2023-02-12T13:04:56.692Z,10.98
2023-02-12T13:07:45.790Z,10.83
2023-02-12T13:10:28.764Z,10.70
2023-02-12T13:13:06.216Z,10.93
2023-02-12T13:15:42.016Z,10.89
2023-02-12T13:18:26.040Z,10.92
2023-02-12T13:21:05.580Z,10.83
2023-02-12T13:23:42.544Z,11.08
2023-02-12T13:26:19.810Z,11.01
2023-02-12T13:28:54.501Z,10.63
2023-02-12T13:31:35.464Z,11.07
2023-02-12T13:34:09.842Z,10.99
2023-02-12T13:36:44.324Z,11.19
2023-02-12T13:39:26.544Z,10.89
2023-02-12T13:42:06.706Z,10.95
2023-02-12T13:44:44.697Z,10.74
2023-02-12T13:47:23.659Z,10.88
2023-02-12T13:49:57.580Z,10.84
2023-02-12T13:52:39.648Z,10.57
2023-02-12T13:55:25.898Z,10.79
2023-02-12T13:58:28.040Z,10.90
2023-02-12T14:01:01.162Z,10.82
2023-02-12T14:03:32.622Z,10.93
2023-02-12T14:06:17.843Z,11.01
2023-02-12T14:08:55.165Z,10.76
2023-02-12T14:11:28.920Z,10.60
2023-02-12T14:14:01.462Z,10.79
2023-02-12T14:16:43.525Z,10.93
2023-02-12T14:19:56.843Z,10.34
2023-02-12T14:22:56.614Z,10.91
2023-02-12T14:25:48.631Z,10.83
2023-02-12T14:28:27.090Z,10.92
2023-02-12T14:31:25.071Z,10.85
2023-02-12T14:34:16.238Z,10.74
2023-02-12T14:36:49.222Z,10.69
2023-02-12T14:39:36.544Z,10.85
2023-02-12T14:42:50.745Z,10.89
2023-02-12T14:45:34.840Z,10.68
2023-02-12T14:48:05.704Z,10.82
2023-02-12T14:50:45.843Z,10.91
2023-02-12T14:53:31.881Z,10.95
2023-02-12T14:56:02.720Z,10.61
2023-02-12T14:58:33.524Z,10.75
2023-02-12T15:01:08.527Z,10.93
2023-02-12T15:03:44.623Z,10.85
2023-02-12T15:06:19.091Z,10.71
2023-02-12T15:08:55.514Z,10.88
2023-02-12T15:11:32.664Z,10.90
2023-02-12T15:14:06.195Z,11.05
2023-02-12T15:16:50.823Z,11.06
2023-02-12T15:19:41.663Z,11.00
2023-02-12T15:22:27.106Z,10.93
2023-02-12T15:24:56.855Z,10.83
2023-02-12T15:27:27.140Z,10.77
2023-02-12T15:29:57.140Z,10.84
2023-02-12T15:32:32.551Z,10.81
2023-02-12T15:35:02.309Z,10.79
2023-02-12T15:37:33.829Z,10.68
2023-02-12T15:40:08.794Z,10.74
2023-02-12T15:42:42.817Z,10.78
2023-02-12T15:45:23.626Z,10.84
2023-02-12T15:48:14.737Z,10.55
2023-02-12T15:50:56.714Z,10.79
2023-02-12T15:53:30.354Z,10.59
2023-02-12T15:56:01.633Z,10.71
2023-02-12T15:58:33.339Z,10.79
2023-02-12T16:01:05.088Z,10.78
2023-02-12T16:03:39.461Z,10.79
2023-02-12T16:06:14.006Z,10.66
2023-02-12T16:08:46.754Z,10.67
2023-02-12T16:11:20.213Z,10.69
2023-02-12T16:13:52.146Z,10.76
2023-02-12T16:16:26.652Z,10.81
2023-02-12T16:19:21.120Z,10.51
2023-02-12T16:21:54.657Z,10.75
2023-02-12T16:24:34.641Z,10.81
2023-02-12T16:27:11.566Z,10.82
2023-02-12T16:29:47.508Z,10.81
2023-02-12T16:32:31.340Z,10.85
2023-02-12T16:35:07.494Z,10.79
2023-02-12T16:37:47.393Z,10.82
2023-02-12T16:40:29.949Z,10.54
2023-02-12T16:43:03.293Z,10.74
2023-02-12T16:45:44.725Z,10.85
2023-02-12T16:48:23.523Z,10.86
2023-02-12T16:50:58.201Z,10.82
2023-02-12T16:53:43.906Z,10.74
2023-02-12T16:56:18.475Z,10.74
2023-02-12T16:58:50.836Z,10.70
2023-02-12T17:01:24.656Z,10.63
2023-02-12T17:03:55.883Z,10.77
2023-02-12T17:06:31.881Z,10.71
2023-02-12T17:09:02.044Z,10.63
2023-02-12T17:11:31.963Z,10.79
2023-02-12T17:14:01.849Z,9.93
2023-02-12T17:16:32.507Z,10.18
2023-02-12T18:57:35.028Z,9.93
2023-02-12T19:04:48.132Z,8.25
2023-02-12T19:08:39.253Z,9.85
2023-02-12T19:20:44.434Z,10.30
2023-02-12T20:08:13.849Z,9.48
2023-02-12T20:14:33.260Z,8.54
2023-02-12T20:17:51.133Z,9.41
2023-02-12T20:21:00.739Z,9.82
2023-02-12T20:24:08.899Z,9.38
2023-02-12T20:27:19.000Z,9.60
2023-02-12T20:33:45.375Z,8.87
2023-02-12T20:37:23.867Z,9.59
2023-02-12T20:40:48.188Z,9.38
2023-02-12T20:43:40.623Z,9.33
2023-02-12T20:46:57.144Z,10.24
2023-02-12T20:50:25.115Z,9.22
2023-02-12T20:53:23.479Z,10.16
2023-02-12T20:56:37.835Z,10.15
2023-02-12T20:59:27.218Z,9.56
2023-02-12T21:06:10.319Z,8.33
2023-02-12T21:08:55.753Z,9.31
2023-02-12T21:11:53.654Z,9.33
2023-02-12T21:15:07.014Z,10.04
2023-02-12T21:17:57.186Z,10.24
2023-02-12T21:20:43.722Z,9.28
2023-02-12T21:23:25.568Z,9.31
2023-02-12T21:26:35.236Z,8.30
2023-02-12T21:29:36.116Z,9.30
2023-02-12T21:32:43.227Z,9.35
2023-02-12T21:35:57.235Z,9.27
2023-02-12T21:39:05.954Z,9.27
2023-02-12T22:00:26.276Z,10.13
2023-02-12T22:02:56.209Z,9.84
2023-02-12T22:05:26.142Z,9.81
2023-02-12T22:07:55.977Z,9.41
2023-02-12T22:10:26.036Z,9.12
2023-02-12T22:12:56.090Z,10.12
2023-02-12T22:15:28.749Z,9.80
2023-02-12T22:17:58.676Z,9.64
2023-02-12T22:20:28.470Z,9.72
2023-02-12T22:22:58.334Z,8.90
2023-02-12T22:25:28.336Z,9.58
2023-02-12T22:27:58.159Z,9.67
2023-02-12T22:30:30.778Z,9.13
2023-02-12T22:33:00.734Z,9.52
2023-02-12T22:35:32.011Z,9.10
2023-02-12T22:38:01.990Z,8.89
2023-02-12T22:40:32.120Z,10.07
2023-02-12T22:43:03.237Z,9.71
2023-02-12T22:45:35.844Z,8.31
2023-02-12T22:48:06.214Z,9.77
2023-02-12T22:50:37.049Z,9.45
2023-02-12T22:53:07.272Z,8.58
2023-02-12T22:55:39.031Z,9.28
2023-02-12T22:58:08.860Z,9.96
2023-02-12T23:00:42.569Z,9.51
2023-02-12T23:03:12.737Z,9.37
2023-02-12T23:05:43.002Z,9.52
2023-02-12T23:08:13.244Z,9.61
2023-02-12T23:10:43.367Z,9.69
2023-02-12T23:13:24.629Z,9.49
2023-02-12T23:16:01.566Z,9.57
2023-02-12T23:18:31.631Z,9.55
2023-02-12T23:21:01.998Z,9.52
2023-02-12T23:23:31.995Z,9.49
2023-02-12T23:26:02.008Z,8.66
2023-02-12T23:28:32.541Z,9.52
2023-02-12T23:31:05.256Z,9.13
2023-02-12T23:33:35.272Z,9.45
2023-02-12T23:36:05.243Z,8.95
2023-02-12T23:38:35.283Z,9.39
2023-02-12T23:41:05.305Z,8.05
2023-02-12T23:43:35.580Z,9.54
2023-02-12T23:46:09.498Z,9.95
2023-02-12T23:48:39.486Z,9.90
2023-02-12T23:51:10.309Z,9.89
2023-02-12T23:53:40.255Z,9.79
2023-02-12T23:56:10.674Z,8.82
2023-02-12T23:58:40.629Z,9.07
